createdAt,value
2022-12-19T05:01:58.454Z,29.13
2022-12-19T05:04:31.509Z,29.83
2022-12-19T05:07:03.157Z,29.33
2022-12-19T05:09:34.783Z,28.27
2022-12-19T05:12:06.808Z,28.57
2022-12-19T05:14:38.425Z,28.93
2022-12-19T05:17:11.779Z,29.17
2022-12-19T05:19:43.427Z,29.03
2022-12-19T05:22:15.113Z,30.27
2022-12-19T05:24:46.772Z,29.37
2022-12-19T05:27:18.458Z,28.60
2022-12-19T05:29:50.101Z,28.57
2022-12-19T05:32:23.090Z,28.90
2022-12-19T05:34:54.727Z,30.10
2022-12-19T05:37:26.484Z,30.23
2022-12-19T05:39:58.201Z,28.90
2022-12-19T05:42:29.879Z,27.67
2022-12-19T05:45:01.504Z,29.83
2022-12-19T05:47:34.558Z,31.33
2022-12-19T05:50:07.121Z,29.10
2022-12-19T05:52:38.806Z,29.20
2022-12-19T05:55:10.622Z,29.70
2022-12-19T05:57:42.266Z,29.43
2022-12-19T06:00:14.813Z,27.20
2022-12-19T06:02:47.965Z,28.53
2022-12-19T06:05:19.692Z,28.93
2022-12-19T06:07:51.349Z,26.67
2022-12-19T06:10:22.997Z,27.70
2022-12-19T06:12:54.675Z,26.93
2022-12-19T06:15:26.355Z,28.87
2022-12-19T06:17:59.387Z,26.20
2022-12-19T06:20:31.022Z,28.07
2022-12-19T06:23:02.682Z,26.20
2022-12-19T06:25:34.785Z,26.83
2022-12-19T06:28:06.475Z,27.17
2022-12-19T06:30:39.306Z,27.37
2022-12-19T06:33:12.422Z,26.27
2022-12-19T06:35:44.074Z,25.53
2022-12-19T06:38:15.794Z,26.67
2022-12-19T06:40:47.441Z,26.97
2022-12-19T06:43:19.144Z,25.03
2022-12-19T06:45:50.826Z,25.47
2022-12-19T06:48:23.940Z,26.00
2022-12-19T06:50:55.595Z,24.90
2022-12-19T06:53:27.250Z,26.40
2022-12-19T06:55:59.340Z,28.48
2022-12-19T06:58:31.014Z,26.70
2022-12-19T07:01:02.690Z,26.00
2022-12-19T07:03:37.268Z,25.90
2022-12-19T07:06:08.937Z,26.13
2022-12-19T07:08:40.602Z,27.67
2022-12-19T07:11:12.298Z,26.57
2022-12-19T07:13:43.995Z,25.83
2022-12-19T07:16:15.640Z,26.27
2022-12-19T07:18:49.068Z,25.80
2022-12-19T07:21:20.710Z,26.43
2022-12-19T07:23:52.363Z,27.37
2022-12-19T07:26:24.015Z,27.73
2022-12-19T07:28:55.671Z,27.43
2022-12-19T07:31:27.357Z,29.10
2022-12-19T07:34:00.403Z,26.87
2022-12-19T07:36:32.357Z,28.97
2022-12-19T07:39:04.188Z,26.43
2022-12-19T07:41:36.587Z,27.53
2022-12-19T07:44:08.414Z,28.80
2022-12-19T07:46:40.062Z,27.97
2022-12-19T07:49:16.976Z,27.90
2022-12-19T07:51:51.305Z,27.70
2022-12-19T07:54:22.976Z,28.43
2022-12-19T07:56:54.646Z,28.40
2022-12-19T07:59:31.286Z,27.53
2022-12-19T08:02:06.379Z,28.80
2022-12-19T08:04:40.955Z,27.33
2022-12-19T08:07:12.618Z,27.33
2022-12-19T08:09:44.262Z,27.33
2022-12-19T08:12:15.908Z,25.87
2022-12-19T08:14:47.557Z,26.03
2022-12-19T08:17:20.756Z,26.30
2022-12-19T08:19:54.239Z,27.87
2022-12-19T08:22:25.923Z,29.83
2022-12-19T08:24:57.668Z,27.67
2022-12-19T08:27:29.485Z,27.07
2022-12-19T08:30:01.134Z,28.97
2022-12-19T08:32:32.797Z,29.43
2022-12-19T08:35:06.683Z,27.13
2022-12-19T08:37:40.228Z,29.77
2022-12-19T08:40:12.510Z,28.17
2022-12-19T08:42:44.300Z,25.83
2022-12-19T08:45:16.492Z,30.73
2022-12-19T08:47:48.650Z,28.70
2022-12-19T08:50:21.647Z,29.07
2022-12-19T08:52:53.294Z,29.40
2022-12-19T08:55:24.974Z,28.73
2022-12-19T08:57:58.946Z,25.93
2022-12-19T09:00:33.140Z,26.27
2022-12-19T09:03:04.935Z,29.20
2022-12-19T09:06:00.882Z,26.73
2022-12-19T09:08:31.559Z,28.80
2022-12-19T09:11:04.442Z,34.97
2022-12-19T09:13:36.413Z,30.73
2022-12-19T09:16:09.989Z,27.73
2022-12-19T09:18:48.103Z,26.33
2022-12-19T09:21:22.178Z,26.80
2022-12-19T09:23:54.844Z,26.57
2022-12-19T09:26:27.337Z,27.30
2022-12-19T09:29:10.996Z,26.27
2022-12-19T09:31:56.207Z,26.80
2022-12-19T09:34:33.202Z,25.87
2022-12-19T09:37:16.356Z,26.03
2022-12-19T09:39:49.214Z,26.70
2022-12-19T09:42:42.660Z,26.50
2022-12-19T09:45:34.981Z,26.63
2022-12-19T09:48:11.089Z,25.50
2022-12-19T09:51:10.425Z,26.13
2022-12-19T09:53:54.557Z,26.60
2022-12-19T09:56:28.707Z,25.43
2022-12-19T09:59:03.285Z,24.57
2022-12-19T10:01:37.924Z,24.57
2022-12-19T10:04:10.767Z,25.40
2022-12-19T10:07:12.991Z,25.00
2022-12-19T10:12:34.405Z,26.97
2022-12-19T10:12:47.212Z,24.30
2022-12-19T10:15:25.342Z,24.53
2022-12-19T10:18:14.062Z,25.10
2022-12-19T10:20:47.591Z,24.27
2022-12-19T10:23:30.982Z,23.03
2022-12-19T10:26:06.133Z,36.13
2022-12-19T10:28:54.414Z,24.87
2022-12-19T10:31:30.053Z,24.33
2022-12-19T10:34:05.079Z,24.27
2022-12-19T10:37:12.912Z,25.07
2022-12-19T10:39:32.056Z,23.63
2022-12-19T10:42:12.498Z,21.83
2022-12-19T10:44:44.525Z,23.17
2022-12-19T10:47:16.716Z,22.73
2022-12-19T10:49:48.383Z,22.33
2022-12-19T10:52:45.252Z,23.73
2022-12-19T10:55:22.597Z,23.17
2022-12-19T10:57:59.157Z,23.07
2022-12-19T11:00:32.906Z,23.43
2022-12-19T11:03:08.661Z,23.57
2022-12-19T11:05:42.348Z,22.50
2022-12-19T11:08:16.824Z,22.23
2022-12-19T11:12:12.941Z,23.60
2022-12-19T11:18:17.635Z,22.37
2022-12-19T11:29:34.345Z,21.57
2022-12-19T11:29:45.797Z,21.20
2022-12-19T11:30:08.454Z,21.97
2022-12-19T11:30:59.587Z,21.50
2022-12-19T11:34:03.767Z,21.97
2022-12-19T11:36:37.642Z,20.97
2022-12-19T11:39:12.377Z,21.03
2022-12-19T11:41:46.269Z,21.40
2022-12-19T11:44:22.850Z,22.63
2022-12-19T11:47:03.290Z,21.53
2022-12-19T11:49:36.755Z,20.60
2022-12-19T11:52:37.021Z,21.20
2022-12-19T11:55:07.866Z,20.00
2022-12-19T11:57:39.509Z,20.83
2022-12-19T12:00:13.112Z,21.33
2022-12-19T12:03:17.523Z,19.50
2022-12-19T12:05:49.324Z,20.93
2022-12-19T12:12:18.179Z,20.40
2022-12-19T12:17:11.469Z,19.20
2022-12-19T12:24:20.043Z,19.77
2022-12-19T12:24:25.043Z,19.10
2022-12-19T12:31:04.641Z,18.87
2022-12-19T12:31:11.913Z,19.07
2022-12-19T12:31:41.321Z,18.33
2022-12-19T12:32:06.757Z,18.57
2022-12-19T12:35:56.813Z,16.83
2022-12-19T12:38:39.468Z,16.60
2022-12-19T12:41:19.324Z,16.37
2022-12-19T12:44:00.568Z,16.70
2022-12-19T12:46:34.892Z,16.93
2022-12-19T12:49:12.125Z,16.17
2022-12-19T12:51:45.108Z,16.50
2022-12-19T12:54:16.767Z,15.87
2022-12-19T12:56:48.400Z,16.97
2022-12-19T12:59:22.617Z,17.77
2022-12-19T13:01:54.781Z,15.73
2022-12-19T13:04:28.962Z,14.90
2022-12-19T13:07:18.486Z,17.23
2022-12-19T13:09:53.445Z,15.43
2022-12-19T13:12:26.232Z,17.83
2022-12-19T13:15:18.237Z,16.50
2022-12-19T13:18:08.533Z,16.27
2022-12-19T13:20:42.802Z,15.13
2022-12-19T13:23:23.779Z,16.10
2022-12-19T13:25:55.549Z,15.77
2022-12-19T13:28:51.271Z,15.80
2022-12-19T13:31:23.752Z,15.10
2022-12-19T13:34:14.589Z,14.90
2022-12-19T13:39:49.599Z,16.30
2022-12-19T13:40:10.800Z,15.20
2022-12-19T13:43:10.670Z,15.07
2022-12-19T13:45:47.697Z,14.67
2022-12-19T13:48:26.420Z,15.20
2022-12-19T13:50:58.795Z,14.83
2022-12-19T13:53:30.450Z,15.33
2022-12-19T13:56:04.234Z,15.20
2022-12-19T13:58:37.667Z,16.17
2022-12-19T14:01:20.668Z,16.03
2022-12-19T14:03:54.511Z,15.77
2022-12-19T14:06:27.857Z,15.20
2022-12-19T14:11:24.017Z,15.40
2022-12-19T14:12:26.282Z,15.73
2022-12-19T14:14:57.988Z,16.30
2022-12-19T14:17:47.444Z,18.40
2022-12-19T14:22:05.793Z,16.40
2022-12-19T14:23:12.370Z,16.27
2022-12-19T14:28:15.229Z,15.30
2022-12-19T14:28:40.764Z,15.33
2022-12-19T14:31:14.094Z,15.47
2022-12-19T14:34:11.156Z,15.37
2022-12-19T14:36:38.571Z,16.50
2022-12-19T14:39:23.551Z,15.67
2022-12-19T14:42:03.805Z,14.63
2022-12-19T14:54:03.656Z,14.57
2022-12-19T14:54:10.264Z,14.90
2022-12-19T14:54:11.538Z,15.00
2022-12-19T14:54:48.235Z,14.33
2022-12-19T14:59:26.610Z,13.47
2022-12-19T15:02:02.174Z,13.70
2022-12-19T15:04:51.140Z,13.13
2022-12-19T15:07:26.244Z,12.73
2022-12-19T15:11:05.355Z,12.67
2022-12-19T15:14:54.258Z,12.73
2022-12-19T15:15:52.063Z,12.57
2022-12-19T15:18:26.945Z,12.33
2022-12-19T15:20:59.860Z,13.03
2022-12-19T15:23:31.588Z,13.43
2022-12-19T15:26:06.080Z,11.93
2022-12-19T15:28:39.973Z,12.33
2022-12-19T15:31:18.315Z,12.17
2022-12-19T15:34:32.198Z,12.10
2022-12-19T15:36:42.965Z,11.67
2022-12-19T15:39:14.600Z,11.77
2022-12-19T15:41:47.791Z,12.30
2022-12-19T15:44:22.099Z,11.90
2022-12-19T15:46:53.810Z,11.07
2022-12-19T15:49:26.858Z,10.83
2022-12-19T15:51:58.534Z,11.63
2022-12-19T15:57:26.373Z,11.40
2022-12-19T15:59:58.194Z,11.63
2022-12-19T16:02:56.366Z,13.13
2022-12-19T16:05:23.879Z,11.97
2022-12-19T16:07:55.585Z,11.30
2022-12-19T16:10:27.237Z,11.70
2022-12-19T16:12:58.931Z,11.73
2022-12-19T16:15:31.663Z,12.30
2022-12-19T16:18:03.777Z,11.30
2022-12-19T16:20:37.147Z,12.30
2022-12-19T16:23:08.925Z,11.03
2022-12-19T16:25:41.759Z,11.53
2022-12-19T16:28:15.654Z,10.57
2022-12-19T16:30:47.384Z,12.10
2022-12-19T16:33:20.116Z,10.80
2022-12-19T16:36:08.315Z,11.40
2022-12-19T16:38:40.012Z,11.60
2022-12-19T16:41:14.558Z,11.07
2022-12-19T16:43:46.267Z,11.30
2022-12-19T16:46:19.159Z,10.90
2022-12-19T16:48:50.889Z,11.10
2022-12-19T16:51:24.664Z,11.70
2022-12-19T16:53:56.806Z,10.87
2022-12-19T16:56:29.738Z,10.87
2022-12-19T16:59:02.142Z,11.73
2022-12-19T17:01:33.967Z,10.80
2022-12-19T17:04:05.734Z,10.23
2022-12-19T17:06:38.785Z,11.77
2022-12-19T17:09:13.199Z,11.93
2022-12-19T17:11:45.361Z,11.37
2022-12-19T17:14:19.148Z,12.27
2022-12-19T17:16:51.025Z,10.97
2022-12-19T17:19:23.568Z,10.13
2022-12-19T17:21:56.582Z,10.53
2022-12-19T17:24:28.261Z,11.10
2022-12-19T17:26:59.951Z,10.60
2022-12-19T17:29:31.595Z,9.40
2022-12-19T17:32:03.488Z,9.93
2022-12-19T17:34:35.591Z,10.27
2022-12-19T17:37:11.367Z,10.20
2022-12-19T17:39:43.040Z,9.60
2022-12-19T17:42:16.460Z,9.37
2022-12-19T17:44:48.170Z,10.20
2022-12-19T17:47:19.963Z,10.00
2022-12-19T17:49:51.713Z,10.60
2022-12-19T17:52:24.763Z,9.47
2022-12-19T17:54:56.406Z,9.90
2022-12-19T17:57:28.078Z,9.50
2022-12-19T17:59:59.723Z,10.17
2022-12-19T18:02:31.504Z,8.97
2022-12-19T18:05:03.437Z,10.57
2022-12-19T18:07:36.467Z,9.53
2022-12-19T18:10:14.206Z,10.55
2022-12-19T18:12:45.916Z,9.87
2022-12-19T18:15:17.729Z,9.37
2022-12-19T18:17:49.589Z,10.07
2022-12-19T18:20:30.947Z,10.27
2022-12-19T18:23:06.260Z,9.97
2022-12-19T18:25:37.917Z,10.03
2022-12-19T18:28:09.939Z,9.97
2022-12-19T18:30:41.706Z,10.13
2022-12-19T18:33:14.937Z,10.00
2022-12-19T18:35:46.918Z,9.80
2022-12-19T18:38:21.060Z,9.80
2022-12-19T18:40:52.746Z,9.20
2022-12-19T18:43:24.411Z,9.63
2022-12-19T18:45:56.160Z,9.53
2022-12-19T18:48:28.858Z,9.50
2022-12-19T18:51:00.809Z,9.83
2022-12-19T18:53:35.738Z,10.00
2022-12-19T18:56:08.019Z,9.17
2022-12-19T18:58:39.701Z,9.03
2022-12-19T19:01:12.790Z,9.50
2022-12-19T19:03:48.233Z,9.13
2022-12-19T19:06:20.811Z,9.80
2022-12-19T19:08:53.945Z,9.50
2022-12-19T19:11:25.672Z,9.77
2022-12-19T19:13:57.347Z,9.23
2022-12-19T19:16:29.059Z,9.17
2022-12-19T19:19:00.783Z,9.50
2022-12-19T19:21:33.248Z,8.10
2022-12-19T19:24:08.578Z,8.47
2022-12-19T19:26:40.263Z,8.70
2022-12-19T19:29:11.957Z,8.43
2022-12-19T19:31:44.497Z,7.77
2022-12-19T19:34:19.279Z,9.57
2022-12-19T19:36:51.441Z,8.90
2022-12-19T19:39:24.541Z,8.90
2022-12-19T19:41:56.359Z,8.20
2022-12-19T19:44:28.162Z,8.10
2022-12-19T19:46:59.917Z,8.50
2022-12-19T19:49:31.643Z,8.53
2022-12-19T19:52:03.657Z,7.80
2022-12-19T19:54:36.666Z,7.37
2022-12-19T19:57:08.319Z,7.37
2022-12-19T19:59:40.001Z,6.50
2022-12-19T20:02:11.811Z,7.70
2022-12-19T20:04:43.633Z,7.63
2022-12-19T20:07:15.662Z,7.37
2022-12-19T20:09:48.679Z,6.93
2022-12-19T20:12:20.350Z,6.77
2022-12-19T20:14:52.064Z,6.37
2022-12-19T20:17:23.815Z,6.43
2022-12-19T20:19:55.512Z,6.33
2022-12-19T20:22:28.256Z,6.30
2022-12-19T20:25:01.296Z,6.03
2022-12-19T20:27:32.950Z,5.97
2022-12-19T20:30:05.621Z,5.13
2022-12-19T20:32:37.278Z,5.50
2022-12-19T20:35:14.525Z,5.10
2022-12-19T20:37:46.824Z,5.40
2022-12-19T20:40:19.913Z,6.20
2022-12-19T20:42:51.558Z,4.80
2022-12-19T20:45:23.229Z,4.03
2022-12-19T20:47:54.901Z,4.40
2022-12-19T20:50:26.592Z,3.70
2022-12-19T20:52:58.226Z,3.63
2022-12-19T20:55:31.255Z,3.67
2022-12-19T20:58:02.918Z,3.83
2022-12-19T21:00:34.596Z,3.40
2022-12-19T21:05:57.873Z,3.10
2022-12-19T21:08:29.646Z,3.40
2022-12-19T21:11:03.024Z,3.00
2022-12-19T21:13:34.868Z,2.80
2022-12-19T21:16:08.278Z,3.37
2022-12-19T21:18:40.671Z,3.43
2022-12-19T21:21:13.809Z,2.97
2022-12-19T21:23:45.613Z,2.70
2022-12-19T21:26:18.990Z,3.13
2022-12-19T21:28:50.687Z,3.00
2022-12-19T21:31:23.885Z,3.30
2022-12-19T21:33:56.072Z,3.07
2022-12-19T21:36:27.979Z,3.33
2022-12-19T21:38:59.916Z,3.10
2022-12-19T21:41:32.964Z,2.97
2022-12-19T21:44:05.191Z,2.53
2022-12-19T21:46:36.904Z,2.70
2022-12-19T21:49:09.090Z,3.00
2022-12-19T21:51:41.106Z,3.10
2022-12-19T21:54:12.768Z,2.60
2022-12-19T21:56:46.164Z,2.73
2022-12-19T21:59:17.795Z,3.10
2022-12-19T22:01:49.954Z,2.80
2022-12-19T22:04:22.442Z,3.20
2022-12-19T22:06:54.242Z,3.07
2022-12-19T22:09:25.905Z,2.73
2022-12-19T22:11:58.961Z,2.80
2022-12-19T22:14:30.615Z,3.20
2022-12-19T22:17:02.313Z,2.60
2022-12-19T22:19:34.116Z,2.50
2022-12-19T22:22:05.804Z,2.80
2022-12-19T22:24:37.451Z,2.73
2022-12-19T22:27:10.476Z,2.50
2022-12-19T22:29:42.142Z,2.50
2022-12-19T22:32:13.811Z,2.60
2022-12-19T22:34:47.637Z,2.70
2022-12-19T22:37:19.347Z,2.43
2022-12-19T22:39:51.079Z,2.83
2022-12-19T22:42:24.118Z,2.47
2022-12-19T22:44:55.782Z,2.20
2022-12-19T22:47:27.436Z,2.47
2022-12-19T22:49:59.074Z,2.63
2022-12-19T22:52:30.784Z,2.60
2022-12-19T22:55:02.423Z,2.67
2022-12-19T22:57:35.449Z,2.50
